createdAt,value
2023-02-04T00:00:41.429Z,0.75
2023-02-04T00:01:43.224Z,0.40
2023-02-04T00:02:45.254Z,0.50
2023-02-04T00:03:47.129Z,0.57
2023-02-04T00:04:48.932Z,0.60
2023-02-04T00:05:50.736Z,0.50
2023-02-04T00:06:52.650Z,0.63
2023-02-04T00:07:54.492Z,0.60
2023-02-04T00:08:56.405Z,0.60
2023-02-04T00:09:58.205Z,0.70
2023-02-04T00:11:00.025Z,0.60
2023-02-04T00:12:01.862Z,0.75
2023-02-04T00:13:04.355Z,0.52
2023-02-04T00:14:06.203Z,0.55
2023-02-04T00:15:08.640Z,0.50
2023-02-04T00:16:10.471Z,0.40
2023-02-04T00:17:13.112Z,0.45
2023-02-04T00:18:14.926Z,0.60
2023-02-04T00:19:17.143Z,0.70
2023-02-04T00:20:19.825Z,0.60
2023-02-04T00:21:21.648Z,0.45
2023-02-04T00:22:23.554Z,0.50
2023-02-04T00:23:25.438Z,0.60
2023-02-04T00:24:27.208Z,0.50
2023-02-04T00:25:28.988Z,0.40
2023-02-04T00:26:30.917Z,0.50
2023-02-04T00:27:32.705Z,0.60
2023-02-04T00:28:35.039Z,0.50
2023-02-04T00:29:36.844Z,0.50
2023-02-04T00:30:38.667Z,0.50
2023-02-04T00:31:40.550Z,0.50
2023-02-04T00:32:42.524Z,0.55
2023-02-04T00:33:44.313Z,0.60
2023-02-04T00:34:46.176Z,0.50
2023-02-04T00:35:48.017Z,0.52
2023-02-04T00:36:49.964Z,0.60
2023-02-04T00:37:51.915Z,0.32
2023-02-04T00:38:53.899Z,0.50
2023-02-04T00:39:55.789Z,0.55
2023-02-04T00:40:57.624Z,0.43
2023-02-04T00:41:59.418Z,0.60
2023-02-04T00:43:01.297Z,0.50
2023-02-04T00:44:03.203Z,0.55
2023-02-04T00:45:05.930Z,0.52
2023-02-04T00:46:08.014Z,0.68
2023-02-04T00:47:09.912Z,0.63
2023-02-04T00:48:11.723Z,0.65
2023-02-04T00:49:14.596Z,0.80
2023-02-04T00:50:16.863Z,0.52
2023-02-04T00:51:18.892Z,0.50
2023-02-04T00:52:20.673Z,0.50
2023-02-04T00:53:22.492Z,0.70
2023-02-04T00:54:24.235Z,0.73
2023-02-04T00:55:26.163Z,0.70
2023-02-04T00:56:28.014Z,0.70
2023-02-04T00:57:29.822Z,0.65
2023-02-04T00:58:32.042Z,0.60
2023-02-04T00:59:33.991Z,0.70
2023-02-04T01:00:37.504Z,0.80
2023-02-04T01:01:39.402Z,0.60
2023-02-04T01:02:41.414Z,0.85
2023-02-04T01:03:43.190Z,0.75
2023-02-04T01:04:45.014Z,1.00
2023-02-04T01:05:46.823Z,1.00
2023-02-04T01:06:48.708Z,0.82
2023-02-04T01:07:50.522Z,0.60
2023-02-04T01:08:52.655Z,0.80
2023-02-04T01:09:54.557Z,0.68
2023-02-04T01:10:56.345Z,0.80
2023-02-04T01:11:58.176Z,0.95
2023-02-04T01:13:00.049Z,0.60
2023-02-04T01:14:02.516Z,0.70
2023-02-04T01:15:05.376Z,0.90
2023-02-04T01:16:07.165Z,1.10
2023-02-04T01:17:08.997Z,0.73
2023-02-04T01:18:12.847Z,0.93
2023-02-04T01:19:14.765Z,0.85
2023-02-04T01:20:16.848Z,1.00
2023-02-04T01:21:18.638Z,0.90
2023-02-04T01:22:20.709Z,0.80
2023-02-04T01:23:22.486Z,0.80
2023-02-04T01:24:24.443Z,0.82
2023-02-04T01:25:44.616Z,0.80
2023-02-04T01:26:46.421Z,0.60
2023-02-04T01:27:48.343Z,1.00
2023-02-04T01:28:50.756Z,1.00
2023-02-04T01:29:52.605Z,0.80
2023-02-04T01:30:54.961Z,0.77
2023-02-04T01:31:56.889Z,0.85
2023-02-04T01:32:58.793Z,0.88
2023-02-04T01:34:01.397Z,1.08
2023-02-04T01:35:03.816Z,1.00
2023-02-04T01:36:05.984Z,0.98
2023-02-04T01:37:07.780Z,0.70
2023-02-04T01:38:09.609Z,1.00
2023-02-04T01:39:11.476Z,1.00
2023-02-04T01:40:13.549Z,0.90
2023-02-04T01:41:16.409Z,0.98
2023-02-04T01:42:18.312Z,0.90
2023-02-04T01:43:23.284Z,1.00
2023-02-04T01:44:25.116Z,0.70
2023-02-04T01:45:28.284Z,0.70
2023-02-04T01:46:31.526Z,0.90
2023-02-04T01:47:33.424Z,0.70
2023-02-04T01:48:35.354Z,0.60
2023-02-04T01:49:37.206Z,0.82
2023-02-04T01:50:39.146Z,0.70
2023-02-04T01:51:41.139Z,0.60
2023-02-04T01:52:45.943Z,0.70
2023-02-04T01:53:47.803Z,0.80
2023-02-04T01:54:49.988Z,0.65
2023-02-04T01:55:52.656Z,0.90
2023-02-04T01:56:55.546Z,0.60
2023-02-04T01:57:59.140Z,0.80
2023-02-04T01:59:01.378Z,0.70
2023-02-04T02:00:03.775Z,0.95
2023-02-04T02:01:53.490Z,0.75
2023-02-04T02:02:55.513Z,0.80
2023-02-04T02:03:58.563Z,0.90
2023-02-04T02:05:00.492Z,0.70
2023-02-04T02:06:02.610Z,0.70
2023-02-04T02:07:05.784Z,0.73
2023-02-04T02:08:08.804Z,0.68
2023-02-04T02:09:13.064Z,0.43
2023-02-04T02:10:16.049Z,0.80
2023-02-04T02:11:18.032Z,0.65
2023-02-04T02:12:19.878Z,0.65
2023-02-04T02:13:22.262Z,0.80
2023-02-04T02:14:24.265Z,0.60
2023-02-04T02:15:26.813Z,0.73
2023-02-04T02:16:28.686Z,0.65
2023-02-04T02:17:31.251Z,0.70
2023-02-04T02:18:33.161Z,0.70
2023-02-04T02:19:38.268Z,0.68
2023-02-04T02:20:42.996Z,0.85
2023-02-04T02:22:03.584Z,0.60
2023-02-04T02:23:19.327Z,0.60
2023-02-04T02:24:33.416Z,0.60
2023-02-04T02:25:35.410Z,0.55
2023-02-04T02:26:38.437Z,0.50
2023-02-04T02:27:40.772Z,0.50
2023-02-04T02:28:43.211Z,0.57
2023-02-04T02:29:45.192Z,0.50
2023-02-04T02:30:49.239Z,0.65
2023-02-04T02:31:51.349Z,0.55
2023-02-04T02:32:53.433Z,0.50
2023-02-04T02:33:55.331Z,0.45
2023-02-04T02:34:57.273Z,0.50
2023-02-04T02:35:59.296Z,0.40
2023-02-04T02:37:02.629Z,0.40
2023-02-04T02:38:04.400Z,0.30
2023-02-04T02:39:06.316Z,0.50
2023-02-04T02:40:10.592Z,0.50
2023-02-04T02:41:14.459Z,0.55
2023-02-04T02:42:18.116Z,0.40
2023-02-04T02:43:26.447Z,0.40
2023-02-04T02:44:29.167Z,0.40
2023-02-04T02:45:33.705Z,0.50
2023-02-04T02:46:35.604Z,0.32
2023-02-04T02:47:37.537Z,0.40
2023-02-04T02:48:39.368Z,0.40
2023-02-04T02:49:42.082Z,0.35
2023-02-04T02:50:45.275Z,0.50
2023-02-04T02:51:48.269Z,0.60
2023-02-04T02:52:50.143Z,0.40
2023-02-04T02:53:52.049Z,0.40
2023-02-04T02:54:53.968Z,0.50
2023-02-04T02:55:55.894Z,0.50
2023-02-04T02:57:00.015Z,0.40
2023-02-04T02:58:01.956Z,0.52
2023-02-04T02:59:21.888Z,0.60
2023-02-04T03:00:29.705Z,0.40
2023-02-04T03:01:33.089Z,0.40
2023-02-04T03:02:35.198Z,0.30
2023-02-04T03:03:41.919Z,0.50
2023-02-04T03:04:49.660Z,0.30
2023-02-04T03:05:55.844Z,0.38
2023-02-04T03:06:57.977Z,0.45
2023-02-04T03:08:00.163Z,0.30
2023-02-04T03:09:02.256Z,0.45
2023-02-04T03:10:05.181Z,0.30
2023-02-04T03:11:07.122Z,0.40
2023-02-04T03:12:08.971Z,0.40
2023-02-04T03:13:13.977Z,0.30
2023-02-04T03:14:15.865Z,0.52
2023-02-04T03:15:18.173Z,0.20
2023-02-04T03:16:21.107Z,0.30
2023-02-04T03:17:23.080Z,0.40
2023-02-04T03:18:25.022Z,0.40
2023-02-04T03:19:28.165Z,0.30
2023-02-04T03:20:33.104Z,0.38
2023-02-04T03:21:35.888Z,0.40
2023-02-04T03:22:38.810Z,0.38
2023-02-04T03:23:41.079Z,0.30
2023-02-04T03:24:43.044Z,0.30
2023-02-04T03:25:45.442Z,0.35
2023-02-04T03:26:47.308Z,0.40
2023-02-04T03:27:49.125Z,0.30
2023-02-04T03:28:50.972Z,0.35
2023-02-04T03:29:52.782Z,0.30
2023-02-04T03:30:56.259Z,0.47
2023-02-04T03:32:00.108Z,0.40
2023-02-04T03:33:02.109Z,0.40
2023-02-04T03:34:05.055Z,0.52
2023-02-04T03:35:06.965Z,0.30
2023-02-04T03:36:09.549Z,0.40
2023-02-04T03:37:11.444Z,0.30
2023-02-04T03:38:13.265Z,0.45
2023-02-04T03:39:15.128Z,0.35
2023-02-04T03:40:17.111Z,0.32
2023-02-04T03:41:19.195Z,0.40
2023-02-04T03:42:21.081Z,0.30
2023-02-04T03:43:22.946Z,0.28
2023-02-04T03:44:27.016Z,0.30
2023-02-04T03:45:37.510Z,0.25
2023-02-04T03:46:45.809Z,0.30
2023-02-04T03:47:47.644Z,0.40
2023-02-04T03:48:50.144Z,0.30
2023-02-04T03:49:51.990Z,0.30
2023-02-04T03:50:53.786Z,0.40
2023-02-04T03:51:55.601Z,0.40
2023-02-04T03:52:57.441Z,0.60
2023-02-04T03:53:59.244Z,0.40
2023-02-04T03:55:01.041Z,0.57
2023-02-04T03:56:02.945Z,0.30
2023-02-04T03:57:04.715Z,0.30
2023-02-04T03:58:06.686Z,0.50
2023-02-04T03:59:08.564Z,0.40
2023-02-04T04:00:11.446Z,0.55
2023-02-04T04:01:15.985Z,0.55
2023-02-04T04:02:17.823Z,0.40
2023-02-04T04:03:19.589Z,0.47
2023-02-04T04:04:21.528Z,0.43
2023-02-04T04:05:23.380Z,0.20
2023-02-04T04:06:25.290Z,0.32
2023-02-04T04:07:27.060Z,0.20
2023-02-04T04:08:28.860Z,0.35
2023-02-04T04:09:30.658Z,0.40
2023-02-04T04:10:33.125Z,0.40
2023-02-04T04:11:35.075Z,0.40
2023-02-04T04:12:37.183Z,0.35
2023-02-04T04:13:39.070Z,0.40
2023-02-04T04:14:40.946Z,0.30
2023-02-04T04:15:42.879Z,0.40
2023-02-04T04:16:44.748Z,0.20
2023-02-04T04:17:46.651Z,0.50
2023-02-04T04:18:48.586Z,0.40
2023-02-04T04:19:50.369Z,0.30
2023-02-04T04:20:52.268Z,0.35
2023-02-04T04:21:54.180Z,0.50
2023-02-04T04:22:56.072Z,0.40
2023-02-04T04:23:57.836Z,0.38
2023-02-04T04:24:59.656Z,0.30
2023-02-04T04:26:01.430Z,0.38
2023-02-04T04:27:03.324Z,0.30
2023-02-04T04:28:05.287Z,0.40
2023-02-04T04:29:07.112Z,0.30
2023-02-04T04:30:09.680Z,0.30
2023-02-04T04:31:11.811Z,0.40
2023-02-04T04:32:13.673Z,0.50
2023-02-04T04:33:15.483Z,0.40
2023-02-04T04:34:17.358Z,0.40
2023-02-04T04:35:19.167Z,0.20
2023-02-04T04:36:20.949Z,0.30
2023-02-04T04:37:22.791Z,0.30
2023-02-04T04:38:24.588Z,0.35
2023-02-04T04:39:26.494Z,0.20
2023-02-04T04:40:28.456Z,0.40
2023-02-04T04:41:30.218Z,0.40
2023-02-04T04:42:32.066Z,0.20
2023-02-04T04:43:33.886Z,0.40
2023-02-04T04:44:35.656Z,0.40
2023-02-04T04:45:37.459Z,0.20
2023-02-04T04:46:40.873Z,0.28
2023-02-04T04:47:42.775Z,0.20
2023-02-04T04:48:44.588Z,0.40
2023-02-04T04:49:46.389Z,0.30
2023-02-04T04:50:48.165Z,0.32
2023-02-04T04:51:50.060Z,0.35
2023-02-04T04:52:51.916Z,0.28
2023-02-04T04:53:53.672Z,0.35
2023-02-04T04:54:55.589Z,0.30
2023-02-04T04:55:57.396Z,0.20
2023-02-04T04:56:59.181Z,0.47
2023-02-04T04:58:00.954Z,0.25
2023-02-04T04:59:03.448Z,0.40
2023-02-04T05:00:07.691Z,0.30
2023-02-04T05:01:09.515Z,0.20
2023-02-04T05:02:11.430Z,0.30
2023-02-04T05:03:13.829Z,0.30
2023-02-04T05:04:15.626Z,0.30
2023-02-04T05:05:17.533Z,0.40
2023-02-04T05:06:25.264Z,0.30
2023-02-04T05:07:27.802Z,0.30
2023-02-04T05:08:29.700Z,0.40
2023-02-04T05:09:31.510Z,0.38
2023-02-04T05:10:33.455Z,0.30
2023-02-04T05:11:35.748Z,0.25
2023-02-04T05:12:37.546Z,0.40
2023-02-04T05:13:39.323Z,0.30
2023-02-04T05:14:41.572Z,0.32
2023-02-04T05:15:43.345Z,0.40
2023-02-04T05:16:45.224Z,0.30
2023-02-04T05:17:47.034Z,0.30
2023-02-04T05:18:48.842Z,0.32
2023-02-04T05:19:50.613Z,0.30
2023-02-04T05:20:52.464Z,0.30
2023-02-04T05:21:54.353Z,0.25
2023-02-04T05:22:57.382Z,0.40
2023-02-04T05:23:59.205Z,0.35
2023-02-04T05:25:01.019Z,0.20
2023-02-04T05:26:02.817Z,0.38
2023-02-04T05:27:04.656Z,0.30
2023-02-04T05:28:06.497Z,0.30
2023-02-04T05:29:10.384Z,0.40
2023-02-04T05:30:13.376Z,0.38
2023-02-04T05:31:15.266Z,0.40
2023-02-04T05:32:17.084Z,0.40
2023-02-04T05:33:18.869Z,0.45
2023-02-04T05:34:20.820Z,0.30
2023-02-04T05:35:22.650Z,0.40
2023-02-04T05:36:24.676Z,0.30
2023-02-04T05:37:26.505Z,0.20
2023-02-04T05:38:28.375Z,0.32
2023-02-04T05:39:30.184Z,0.32
2023-02-04T05:40:32.270Z,0.43
2023-02-04T05:41:34.209Z,0.20
2023-02-04T05:42:35.993Z,0.47
2023-02-04T05:43:38.340Z,0.35
2023-02-04T05:44:40.144Z,0.40
2023-02-04T05:45:42.025Z,0.28
2023-02-04T05:46:43.830Z,0.50
2023-02-04T05:47:45.790Z,0.30
2023-02-04T05:48:47.538Z,0.38
2023-02-04T05:49:49.337Z,0.38
2023-02-04T05:50:51.219Z,0.40
2023-02-04T05:51:53.044Z,0.20
2023-02-04T05:52:54.834Z,0.40
2023-02-04T05:53:56.601Z,0.43
2023-02-04T05:54:58.409Z,0.20
2023-02-04T05:56:00.243Z,0.30
2023-02-04T05:57:02.060Z,0.40
2023-02-04T05:58:03.933Z,0.30
2023-02-04T05:59:05.827Z,0.40
2023-02-04T06:00:08.615Z,0.30
2023-02-04T06:01:16.309Z,0.20
2023-02-04T06:02:18.572Z,0.50
2023-02-04T06:03:21.661Z,0.40
2023-02-04T06:04:23.522Z,0.40
2023-02-04T06:05:25.624Z,0.30
2023-02-04T06:06:27.391Z,0.30
2023-02-04T06:07:29.142Z,0.20
2023-02-04T06:08:30.929Z,0.32
2023-02-04T06:09:32.900Z,0.40
2023-02-04T06:10:34.680Z,0.40
2023-02-04T06:11:36.608Z,0.73
2023-02-04T06:12:38.684Z,0.55
2023-02-04T06:13:40.460Z,0.28
2023-02-04T06:14:42.309Z,0.40
2023-02-04T06:15:44.126Z,0.32
2023-02-04T06:16:46.041Z,0.50
2023-02-04T06:17:47.921Z,0.40
2023-02-04T06:18:49.826Z,0.50
2023-02-04T06:19:51.597Z,0.40
2023-02-04T06:20:53.378Z,0.35
2023-02-04T06:21:55.151Z,0.40
2023-02-04T06:22:57.005Z,0.38
2023-02-04T06:23:58.769Z,0.35
2023-02-04T06:25:00.620Z,0.30
2023-02-04T06:26:02.995Z,0.25
2023-02-04T06:27:04.800Z,0.32
2023-02-04T06:28:06.647Z,0.35
2023-02-04T06:29:08.749Z,0.40
2023-02-04T06:30:11.847Z,0.40
2023-02-04T06:31:13.791Z,0.40
2023-02-04T06:32:15.735Z,0.30
2023-02-04T06:33:17.518Z,0.40
2023-02-04T06:34:19.412Z,0.40
2023-02-04T06:35:21.373Z,0.40
2023-02-04T06:36:23.157Z,0.40
2023-02-04T06:37:24.964Z,0.30
2023-02-04T06:38:26.736Z,0.40
2023-02-04T06:39:28.507Z,0.60
2023-02-04T06:40:30.433Z,0.30
2023-02-04T06:41:32.417Z,0.40
2023-02-04T06:42:34.317Z,0.43
2023-02-04T06:43:36.152Z,0.40
2023-02-04T06:44:37.910Z,0.30
2023-02-04T06:45:39.694Z,0.40
2023-02-04T06:46:41.490Z,0.30
2023-02-04T06:47:43.316Z,0.35
2023-02-04T06:48:45.160Z,0.20
2023-02-04T06:49:46.924Z,0.20
2023-02-04T06:50:48.789Z,0.30
2023-02-04T06:51:51.245Z,0.40
2023-02-04T06:52:53.040Z,0.60
2023-02-04T06:53:54.848Z,0.38
2023-02-04T06:54:56.653Z,0.32
2023-02-04T06:55:58.498Z,0.30
2023-02-04T06:57:06.608Z,0.20
2023-02-04T06:58:08.660Z,0.32
2023-02-04T06:59:10.985Z,0.20
2023-02-04T07:00:13.442Z,0.30
2023-02-04T07:01:15.328Z,0.50
2023-02-04T07:02:17.266Z,0.22
2023-02-04T07:03:19.045Z,0.20
2023-02-04T07:04:20.891Z,0.35
2023-02-04T07:05:22.767Z,0.50
2023-02-04T07:06:24.639Z,0.47
2023-02-04T07:07:26.966Z,0.20
2023-02-04T07:08:28.980Z,0.43
2023-02-04T07:09:30.746Z,0.60
2023-02-04T07:10:33.138Z,0.40
2023-02-04T07:11:35.139Z,0.30
2023-02-04T07:12:36.931Z,0.40
2023-02-04T07:13:38.769Z,0.20
2023-02-04T07:14:40.679Z,0.50
2023-02-04T07:15:42.670Z,0.43
2023-02-04T07:16:44.600Z,0.38
2023-02-04T07:17:46.452Z,0.50
2023-02-04T07:18:48.232Z,0.30
2023-02-04T07:19:50.021Z,0.30
2023-02-04T07:20:51.963Z,0.50
2023-02-04T07:21:56.817Z,0.50
2023-02-04T07:22:58.862Z,0.70
2023-02-04T07:24:00.731Z,0.40
2023-02-04T07:25:02.484Z,0.45
2023-02-04T07:26:04.325Z,0.63
2023-02-04T07:27:06.395Z,0.55
2023-02-04T07:28:08.309Z,0.50
2023-02-04T07:29:17.341Z,0.60
2023-02-04T07:30:22.603Z,0.55
2023-02-04T07:31:24.472Z,0.68
2023-02-04T07:32:27.929Z,0.52
2023-02-04T07:33:29.801Z,0.80
2023-02-04T07:34:31.626Z,0.75
2023-02-04T07:35:33.502Z,0.70
2023-02-04T07:36:35.412Z,0.55
2023-02-04T07:37:37.224Z,1.00
2023-02-04T07:38:39.010Z,0.50
2023-02-04T07:39:40.885Z,0.63
2023-02-04T07:40:43.122Z,0.60
2023-02-04T07:41:45.124Z,0.80
2023-02-04T07:42:49.331Z,0.85
2023-02-04T07:43:53.262Z,0.77
2023-02-04T07:44:55.261Z,0.80
2023-02-04T07:45:57.166Z,0.80
2023-02-04T07:46:59.034Z,0.68
2023-02-04T07:48:00.863Z,0.70
2023-02-04T07:49:02.993Z,0.68
2023-02-04T07:50:05.320Z,0.70
2023-02-04T07:51:07.336Z,0.65
2023-02-04T07:52:09.822Z,0.57
2023-02-04T07:53:11.630Z,0.90
2023-02-04T07:54:13.447Z,0.63
2023-02-04T07:55:15.264Z,0.90
2023-02-04T07:56:17.109Z,0.68
2023-02-04T07:57:20.598Z,0.95
2023-02-04T07:58:23.171Z,0.63
2023-02-04T07:59:24.984Z,0.73
2023-02-04T08:00:26.767Z,0.75
2023-02-04T08:01:28.573Z,0.68
2023-02-04T08:02:30.599Z,0.68
2023-02-04T08:03:33.003Z,0.60
2023-02-04T08:04:34.924Z,0.68
2023-02-04T08:05:36.753Z,0.63
2023-02-04T08:06:38.532Z,0.70
2023-02-04T08:07:40.569Z,0.60
2023-02-04T08:08:42.341Z,0.70
2023-02-04T08:09:44.103Z,0.68
2023-02-04T08:10:46.121Z,0.85
2023-02-04T08:11:47.916Z,1.00
2023-02-04T08:12:49.708Z,0.60
2023-02-04T08:13:51.478Z,0.75
2023-02-04T08:14:53.349Z,0.80
2023-02-04T08:15:55.232Z,1.00
2023-02-04T08:16:57.117Z,0.75
2023-02-04T08:17:59.019Z,0.70
2023-02-04T08:19:00.880Z,0.80
2023-02-04T08:20:03.290Z,0.90
2023-02-04T08:21:06.349Z,0.80
2023-02-04T08:22:08.200Z,0.57
2023-02-04T08:23:10.116Z,0.70
2023-02-04T08:24:13.172Z,1.08
2023-02-04T08:25:15.173Z,0.77
2023-02-04T08:26:16.999Z,0.80
2023-02-04T08:27:18.822Z,0.82
2023-02-04T08:28:20.654Z,0.90
2023-02-04T08:29:22.502Z,1.08
2023-02-04T08:30:24.329Z,0.88
2023-02-04T08:31:26.455Z,0.90
2023-02-04T08:32:29.399Z,0.90
2023-02-04T08:33:31.206Z,0.90
2023-02-04T08:34:33.106Z,0.80
2023-02-04T08:35:34.856Z,0.95
2023-02-04T08:36:36.697Z,0.80
2023-02-04T08:37:38.653Z,0.70
2023-02-04T08:38:41.287Z,0.90
2023-02-04T08:39:46.275Z,0.95
2023-02-04T08:40:48.189Z,0.95
2023-02-04T08:41:51.371Z,0.80
2023-02-04T08:42:53.160Z,0.73
2023-02-04T08:43:55.016Z,1.23
2023-02-04T08:44:56.850Z,1.15
2023-02-04T08:45:58.697Z,1.08
2023-02-04T08:47:00.591Z,1.02
2023-02-04T08:48:02.512Z,1.00
2023-02-04T08:49:04.339Z,0.90
2023-02-04T08:50:06.523Z,0.90
2023-02-04T08:51:08.446Z,0.88
2023-02-04T08:52:10.255Z,0.73
2023-02-04T08:53:12.129Z,1.00
2023-02-04T08:54:13.915Z,0.90
2023-02-04T08:55:15.958Z,1.15
2023-02-04T08:56:20.500Z,1.02
2023-02-04T08:57:22.315Z,0.90
2023-02-04T08:58:24.220Z,0.80
2023-02-04T08:59:26.064Z,0.80
2023-02-04T09:00:28.060Z,0.70
2023-02-04T09:01:30.079Z,0.88
2023-02-04T09:02:31.887Z,0.90
2023-02-04T09:03:33.718Z,1.10
2023-02-04T09:04:35.550Z,0.93
2023-02-04T09:05:37.353Z,0.80
2023-02-04T09:06:39.194Z,0.80
2023-02-04T09:07:41.062Z,0.93
2023-02-04T09:08:42.819Z,0.77
2023-02-04T09:09:44.590Z,0.80
2023-02-04T09:10:46.741Z,0.90
2023-02-04T09:11:48.608Z,0.93
2023-02-04T09:12:55.890Z,1.00
2023-02-04T09:13:57.755Z,1.00
2023-02-04T09:14:59.512Z,0.95
2023-02-04T09:16:01.337Z,1.13
2023-02-04T09:17:04.207Z,1.15
2023-02-04T09:18:14.687Z,0.80
2023-02-04T09:19:19.255Z,0.73
2023-02-04T09:20:21.779Z,1.15
2023-02-04T09:21:23.536Z,1.05
2023-02-04T09:22:25.353Z,1.05
2023-02-04T09:23:27.200Z,1.00
2023-02-04T09:24:29.053Z,1.00
2023-02-04T09:25:30.844Z,1.02
2023-02-04T09:26:32.709Z,0.98
2023-02-04T09:27:34.529Z,1.05
2023-02-04T09:28:36.465Z,1.10
2023-02-04T09:29:38.561Z,0.80
2023-02-04T09:30:41.970Z,0.70
2023-02-04T09:31:43.882Z,1.00
2023-02-04T09:32:45.656Z,0.80
2023-02-04T09:33:47.453Z,0.95
2023-02-04T09:34:49.216Z,0.77
2023-02-04T09:35:51.014Z,1.00
2023-02-04T09:36:52.794Z,0.80
2023-02-04T09:37:54.652Z,1.08
2023-02-04T09:38:56.616Z,0.82
2023-02-04T09:39:58.379Z,1.02
2023-02-04T09:41:02.992Z,1.02
2023-02-04T09:42:04.914Z,0.80
2023-02-04T09:43:07.185Z,0.90
2023-02-04T09:44:15.665Z,0.85
2023-02-04T09:45:21.844Z,1.00
2023-02-04T09:46:28.606Z,1.10
2023-02-04T09:47:31.319Z,1.20
2023-02-04T09:48:33.381Z,0.80
2023-02-04T09:49:35.176Z,0.90
2023-02-04T09:50:37.154Z,1.00
2023-02-04T09:51:39.439Z,0.65
2023-02-04T09:52:41.298Z,1.10
2023-02-04T09:53:43.194Z,0.80
2023-02-04T09:54:45.989Z,0.85
2023-02-04T09:55:49.641Z,0.80
2023-02-04T09:56:52.716Z,0.80
2023-02-04T09:57:54.619Z,1.10
2023-02-04T09:58:56.556Z,0.98
2023-02-04T09:59:58.812Z,0.80
2023-02-04T10:01:12.008Z,0.63
2023-02-04T10:02:25.704Z,0.90
2023-02-04T10:03:28.003Z,1.00
2023-02-04T10:04:29.870Z,0.68
2023-02-04T10:05:33.745Z,0.90
2023-02-04T10:06:37.473Z,0.75
2023-02-04T10:07:39.420Z,0.80
2023-02-04T10:08:42.190Z,0.80
2023-02-04T10:09:44.023Z,0.80
2023-02-04T10:10:48.065Z,0.90
2023-02-04T10:11:50.029Z,0.88
2023-02-04T10:12:55.105Z,0.63
2023-02-04T10:13:57.120Z,0.70
2023-02-04T10:15:00.590Z,1.05
2023-02-04T10:16:10.467Z,0.73
2023-02-04T10:17:16.600Z,0.95
2023-02-04T10:18:29.137Z,0.70
2023-02-04T10:19:32.211Z,0.90
2023-02-04T10:20:34.547Z,1.00
2023-02-04T10:21:37.060Z,0.90
2023-02-04T10:22:39.679Z,0.90
2023-02-04T10:23:43.641Z,0.90
2023-02-04T10:24:45.524Z,1.25
2023-02-04T10:25:47.324Z,0.60
2023-02-04T10:26:49.522Z,0.75
2023-02-04T10:27:59.599Z,0.93
2023-02-04T10:29:03.252Z,0.90
2023-02-04T10:30:05.649Z,0.80
2023-02-04T10:31:26.736Z,0.80
2023-02-04T10:32:33.449Z,0.60
2023-02-04T10:33:37.165Z,0.63
2023-02-04T10:34:40.122Z,0.90
2023-02-04T10:35:47.319Z,0.73
2023-02-04T10:36:51.986Z,0.80
2023-02-04T10:38:05.936Z,0.80
2023-02-04T10:39:19.706Z,0.80
2023-02-04T10:40:35.853Z,0.80
2023-02-04T10:41:40.098Z,0.82
2023-02-04T10:42:49.525Z,0.90
2023-02-04T10:44:03.723Z,0.65
2023-02-04T10:45:05.913Z,0.90
2023-02-04T10:46:07.718Z,0.65
2023-02-04T10:47:18.010Z,0.60
2023-02-04T10:48:19.999Z,0.60
2023-02-04T10:49:24.751Z,0.73
2023-02-04T10:50:30.833Z,0.60
2023-02-04T10:51:33.390Z,0.63
2023-02-04T10:52:39.229Z,0.90
2023-02-04T10:53:59.422Z,0.98
2023-02-04T10:55:03.977Z,0.70
2023-02-04T10:56:16.972Z,0.70
2023-02-04T10:57:22.012Z,0.70
2023-02-04T10:58:28.064Z,0.80
2023-02-04T10:59:30.065Z,0.63
2023-02-04T11:00:32.190Z,0.60
2023-02-04T11:01:34.310Z,0.75
2023-02-04T11:02:46.199Z,0.85
2023-02-04T11:03:50.001Z,0.90
2023-02-04T11:04:53.478Z,0.90
2023-02-04T11:05:58.059Z,0.73
2023-02-04T11:06:59.868Z,1.00
2023-02-04T11:08:03.380Z,0.85
2023-02-04T11:09:05.351Z,0.80
2023-02-04T11:10:12.808Z,0.60
2023-02-04T11:11:16.975Z,0.85
2023-02-04T11:12:41.941Z,0.70
2023-02-04T11:13:49.778Z,0.60
2023-02-04T11:14:56.134Z,0.80
2023-02-04T11:16:25.600Z,0.85
2023-02-04T11:17:32.501Z,0.70
2023-02-04T11:18:48.756Z,0.60
2023-02-04T11:19:50.529Z,0.82
2023-02-04T11:20:55.584Z,0.70
2023-02-04T11:22:21.695Z,0.70
2023-02-04T11:23:26.604Z,0.77
2023-02-04T11:24:34.072Z,0.70
2023-02-04T11:25:39.678Z,0.77
2023-02-04T11:26:43.449Z,0.70
2023-02-04T11:27:45.290Z,0.70
2023-02-04T11:28:50.782Z,0.70
2023-02-04T11:30:04.116Z,0.73
2023-02-04T11:31:19.526Z,0.88
2023-02-04T11:32:38.153Z,0.60
2023-02-04T11:33:42.236Z,0.90
2023-02-04T11:34:47.430Z,0.73
2023-02-04T11:36:11.446Z,0.70
2023-02-04T11:37:17.422Z,0.70
2023-02-04T11:38:26.464Z,0.70
2023-02-04T11:39:45.656Z,0.70
2023-02-04T11:40:57.282Z,0.70
2023-02-04T11:42:00.441Z,0.80
2023-02-04T11:43:14.908Z,0.90
2023-02-04T11:44:18.820Z,0.60
2023-02-04T11:45:26.879Z,0.70
2023-02-04T11:46:29.592Z,0.82
2023-02-04T11:47:36.722Z,0.73
2023-02-04T11:48:39.048Z,0.80
2023-02-04T11:49:40.993Z,0.73
2023-02-04T11:50:43.041Z,0.90
2023-02-04T11:51:47.651Z,0.90
2023-02-04T11:52:49.466Z,1.20
2023-02-04T11:53:52.351Z,0.88
2023-02-04T11:54:56.145Z,0.90
2023-02-04T11:55:58.848Z,0.90
2023-02-04T11:57:01.284Z,0.98
2023-02-04T11:58:03.734Z,0.85
2023-02-04T11:59:05.553Z,0.98
2023-02-04T12:00:18.080Z,0.95
2023-02-04T12:01:25.329Z,0.95
2023-02-04T12:02:27.248Z,1.00
2023-02-04T12:03:31.128Z,1.00
2023-02-04T12:04:33.042Z,0.73
2023-02-04T12:05:43.825Z,1.00
2023-02-04T12:06:57.900Z,0.98
2023-02-04T12:08:29.778Z,0.90
2023-02-04T12:09:32.297Z,1.15
2023-02-04T12:10:34.467Z,1.00
2023-02-04T12:11:36.433Z,0.98
2023-02-04T12:12:44.222Z,0.90
2023-02-04T12:13:56.849Z,0.77
2023-02-04T12:15:13.997Z,1.00
2023-02-04T12:16:16.284Z,1.10
2023-02-04T12:17:20.565Z,1.00
2023-02-04T12:18:22.386Z,1.20
2023-02-04T12:19:26.712Z,1.30
2023-02-04T12:20:29.355Z,1.00
2023-02-04T12:21:31.176Z,1.38
2023-02-04T12:22:33.021Z,0.80
2023-02-04T12:23:34.840Z,1.13
2023-02-04T12:24:36.649Z,1.25
2023-02-04T12:25:38.428Z,1.33
2023-02-04T12:26:40.209Z,1.30
2023-02-04T12:27:42.026Z,1.58
2023-02-04T12:28:43.934Z,1.17
2023-02-04T12:29:45.765Z,1.70
2023-02-04T12:30:48.229Z,1.13
2023-02-04T12:31:50.154Z,1.50
2023-02-04T12:32:52.356Z,1.63
2023-02-04T12:33:54.399Z,2.03
2023-02-04T12:34:56.154Z,1.70
2023-02-04T12:35:57.979Z,1.40
2023-02-04T12:36:59.849Z,1.80
2023-02-04T12:38:01.700Z,1.70
2023-02-04T12:39:03.820Z,1.50
2023-02-04T12:40:06.306Z,1.58
2023-02-04T12:41:08.252Z,1.75
2023-02-04T12:42:10.035Z,1.80
2023-02-04T12:43:12.240Z,1.73
2023-02-04T12:44:15.314Z,1.80
2023-02-04T12:45:18.312Z,1.48
2023-02-04T12:46:20.287Z,1.67
2023-02-04T12:47:22.096Z,1.52
2023-02-04T12:48:24.003Z,1.60
2023-02-04T12:49:25.885Z,2.08
2023-02-04T12:50:27.845Z,1.58
2023-02-04T12:51:29.739Z,1.35
2023-02-04T12:52:31.540Z,1.70
2023-02-04T12:53:33.585Z,1.70
2023-02-04T12:54:36.000Z,1.60
2023-02-04T12:55:37.904Z,1.55
2023-02-04T12:56:39.675Z,1.48
2023-02-04T12:57:41.488Z,1.80
2023-02-04T12:58:43.411Z,1.55
2023-02-04T12:59:49.257Z,1.83
2023-02-04T13:00:51.180Z,2.28
2023-02-04T13:01:53.105Z,2.03
2023-02-04T13:02:55.277Z,1.98
2023-02-04T13:03:58.166Z,1.80
2023-02-04T13:05:00.045Z,1.88
2023-02-04T13:06:02.033Z,2.20
2023-02-04T13:07:03.916Z,2.05
2023-02-04T13:08:05.744Z,1.92
2023-02-04T13:09:07.522Z,2.00
2023-02-04T13:10:10.394Z,1.50
2023-02-04T13:11:12.204Z,1.30
2023-02-04T13:12:14.905Z,1.63
2023-02-04T13:13:16.714Z,1.48
2023-02-04T13:14:18.481Z,1.60
2023-02-04T13:15:20.426Z,1.60
2023-02-04T13:16:24.231Z,1.80
2023-02-04T13:17:26.113Z,1.33
2023-02-04T13:18:28.685Z,1.50
2023-02-04T13:19:31.083Z,1.30
2023-02-04T13:20:32.866Z,0.95
2023-02-04T13:21:34.654Z,1.90
2023-02-04T13:22:36.465Z,1.38
2023-02-04T13:23:38.518Z,1.60
2023-02-04T13:24:40.538Z,1.30
2023-02-04T13:25:43.805Z,1.85
2023-02-04T13:26:47.653Z,1.10
2023-02-04T13:27:49.571Z,1.73
2023-02-04T13:28:51.457Z,1.60
2023-02-04T13:29:53.541Z,1.70
2023-02-04T13:30:55.324Z,1.50
2023-02-04T13:31:57.172Z,1.50
2023-02-04T13:32:59.812Z,1.75
2023-02-04T13:34:01.807Z,1.70
2023-02-04T13:35:03.974Z,1.65
2023-02-04T13:36:06.292Z,1.73
2023-02-04T13:37:08.318Z,1.75
2023-02-04T13:38:10.089Z,1.60
2023-02-04T13:39:12.114Z,1.48
2023-02-04T13:40:13.942Z,1.50
2023-02-04T13:41:15.725Z,1.52
2023-02-04T13:42:17.503Z,1.70
2023-02-04T13:43:19.680Z,1.75
2023-02-04T13:44:21.568Z,2.33
2023-02-04T13:45:23.473Z,1.88
2023-02-04T13:46:25.348Z,1.75
2023-02-04T13:47:27.236Z,1.92
2023-02-04T13:48:29.019Z,1.90
2023-02-04T13:49:30.832Z,1.73
2023-02-04T13:50:32.965Z,1.60
2023-02-04T13:51:34.875Z,2.33
2023-02-04T13:52:36.764Z,2.10
2023-02-04T13:53:38.536Z,2.20
2023-02-04T13:54:40.487Z,1.95
2023-02-04T13:55:42.546Z,2.15
2023-02-04T13:56:44.423Z,2.20
2023-02-04T13:57:46.213Z,2.33
2023-02-04T13:58:48.214Z,2.40
2023-02-04T13:59:49.978Z,2.30
2023-02-04T14:00:51.871Z,2.10